createdAt,value
2023-03-15T00:03:59.910Z,63.81
2023-03-15T00:09:02.094Z,63.23
2023-03-15T00:14:03.586Z,63.47
2023-03-15T00:19:05.148Z,63.23
2023-03-15T00:24:06.962Z,63.28
2023-03-15T00:29:08.373Z,63.10
2023-03-15T00:34:09.724Z,62.23
2023-03-15T00:39:11.398Z,63.33
2023-03-15T00:44:13.079Z,62.56
2023-03-15T00:49:14.497Z,61.90
2023-03-15T00:54:15.919Z,61.35
2023-03-15T00:59:17.308Z,61.12
2023-03-15T01:04:18.766Z,61.60
2023-03-15T01:09:20.416Z,61.65
2023-03-15T01:14:21.787Z,62.01
2023-03-15T01:19:23.134Z,61.73
2023-03-15T01:24:24.526Z,61.46
2023-03-15T01:29:25.884Z,62.06
2023-03-15T01:34:27.629Z,61.41
2023-03-15T01:39:30.052Z,62.58
2023-03-15T01:45:26.140Z,62.75
2023-03-15T01:50:27.542Z,63.66
2023-03-15T01:55:29.686Z,65.96
2023-03-15T02:00:31.596Z,64.47
2023-03-15T02:05:45.961Z,63.43
2023-03-15T02:10:51.858Z,65.09
2023-03-15T02:15:53.572Z,64.91
2023-03-15T02:21:03.993Z,64.56
2023-03-15T02:26:21.939Z,64.49
2023-03-15T02:31:23.294Z,64.88
2023-03-15T02:36:30.066Z,64.45
2023-03-15T02:41:36.499Z,65.44
2023-03-15T02:46:38.296Z,67.44
2023-03-15T02:51:39.672Z,66.09
2023-03-15T02:56:41.034Z,66.20
2023-03-15T03:01:45.654Z,66.51
2023-03-15T03:06:46.983Z,65.96
2023-03-15T03:11:48.322Z,65.40
2023-03-15T03:16:51.327Z,65.40
2023-03-15T03:21:53.645Z,65.98
2023-03-15T03:26:58.016Z,65.86
2023-03-15T03:32:00.631Z,67.05
2023-03-15T03:37:02.144Z,67.63
2023-03-15T03:42:03.791Z,67.71
2023-03-15T03:47:05.313Z,68.28
2023-03-15T03:52:06.852Z,68.15
2023-03-15T03:57:09.422Z,68.80
2023-03-15T04:02:10.953Z,69.54
2023-03-15T04:07:12.321Z,69.24
2023-03-15T04:12:13.840Z,69.83
2023-03-15T04:17:15.183Z,70.01
2023-03-15T04:22:16.548Z,70.16
2023-03-15T04:27:17.977Z,70.37
2023-03-15T04:32:19.650Z,70.28
2023-03-15T04:37:20.962Z,70.29
2023-03-15T04:42:22.813Z,70.29
2023-03-15T04:47:24.232Z,70.52
2023-03-15T04:52:25.543Z,70.35
2023-03-15T04:57:27.003Z,70.32
2023-03-15T05:02:28.316Z,69.99
2023-03-15T05:07:29.657Z,70.42
2023-03-15T05:12:32.061Z,70.42
2023-03-15T05:17:33.738Z,70.46
2023-03-15T05:22:35.196Z,70.03
2023-03-15T05:27:37.376Z,69.98
2023-03-15T05:32:39.704Z,70.79
2023-03-15T05:37:42.302Z,71.15
2023-03-15T05:42:43.813Z,71.23
2023-03-15T05:47:45.122Z,75.35
2023-03-15T05:52:46.478Z,75.63
2023-03-15T05:57:47.807Z,76.58
2023-03-15T06:02:50.061Z,78.33
2023-03-15T06:07:51.348Z,78.91
2023-03-15T06:12:52.759Z,80.24
2023-03-15T06:17:54.156Z,81.47
2023-03-15T06:22:55.506Z,81.81
2023-03-15T06:27:56.888Z,81.27
2023-03-15T06:32:58.263Z,83.37
2023-03-15T06:37:59.912Z,83.36
2023-03-15T06:43:05.837Z,81.22
2023-03-15T06:48:07.167Z,81.23
2023-03-15T06:53:08.855Z,81.68
2023-03-15T06:58:10.760Z,81.47
2023-03-15T07:03:12.200Z,81.57
2023-03-15T07:08:13.588Z,81.50
2023-03-15T07:13:15.383Z,81.74
2023-03-15T07:18:16.810Z,82.46
2023-03-15T07:23:18.115Z,81.69
2023-03-15T07:28:19.580Z,82.85
2023-03-15T07:33:22.511Z,82.00
2023-03-15T07:38:26.396Z,82.09
2023-03-15T07:43:29.342Z,86.13
2023-03-15T07:48:31.113Z,82.21
2023-03-15T07:53:32.940Z,80.97
2023-03-15T07:58:34.618Z,81.34
2023-03-15T08:03:36.474Z,79.73
2023-03-15T08:08:37.903Z,78.87
2023-03-15T08:13:39.557Z,79.36
2023-03-15T08:18:40.918Z,79.10
2023-03-15T08:23:42.280Z,77.91
2023-03-15T08:28:43.611Z,78.83
2023-03-15T08:33:45.197Z,79.71
2023-03-15T08:38:46.645Z,78.90
2023-03-15T08:43:48.075Z,78.69
2023-03-15T08:48:49.576Z,76.52
2023-03-15T08:53:51.891Z,75.40
2023-03-15T08:58:53.210Z,76.29
2023-03-15T09:03:54.539Z,75.44
2023-03-15T09:08:55.848Z,76.08
2023-03-15T09:13:57.270Z,75.23
2023-03-15T09:18:58.767Z,71.82
2023-03-15T09:24:00.129Z,72.03
2023-03-15T09:29:01.583Z,69.79
2023-03-15T09:34:03.473Z,69.26
2023-03-15T09:39:04.932Z,67.93
2023-03-15T09:44:18.496Z,65.89
2023-03-15T09:49:52.833Z,65.07
2023-03-15T09:55:01.013Z,61.06
2023-03-15T10:00:07.192Z,62.19
2023-03-15T10:05:16.738Z,65.74
2023-03-15T10:10:21.953Z,65.77
2023-03-15T10:15:39.150Z,61.87
2023-03-15T10:20:46.889Z,63.19
2023-03-15T10:25:51.648Z,63.44
2023-03-15T10:30:53.267Z,62.42
2023-03-15T10:36:01.268Z,62.56
2023-03-15T10:41:15.220Z,62.47
2023-03-15T10:46:26.061Z,63.44
2023-03-15T10:51:37.433Z,50.11
2023-03-15T10:56:59.583Z,44.57
2023-03-15T11:02:13.787Z,44.22
2023-03-15T11:07:15.205Z,46.82
2023-03-15T11:12:24.094Z,45.44
2023-03-15T11:17:35.313Z,49.40
2023-03-15T11:22:36.766Z,47.02
2023-03-15T11:27:38.175Z,38.83
2023-03-15T11:32:40.019Z,40.89
2023-03-15T11:37:47.687Z,39.08
2023-03-15T11:43:01.045Z,38.94
2023-03-15T11:48:16.947Z,42.03
2023-03-15T11:53:18.420Z,43.39
2023-03-15T11:58:33.847Z,44.09
2023-03-15T12:03:39.323Z,46.48
2023-03-15T12:08:53.021Z,45.22
2023-03-15T12:13:57.389Z,44.25
2023-03-15T12:19:01.517Z,44.70
2023-03-15T12:24:06.480Z,46.75
2023-03-15T12:29:28.271Z,47.08
2023-03-15T12:34:51.362Z,44.09
2023-03-15T12:40:22.348Z,41.57
2023-03-15T12:45:40.801Z,33.55
2023-03-15T12:50:45.660Z,34.15
2023-03-15T12:55:47.656Z,29.77
2023-03-15T13:00:53.351Z,28.94
2023-03-15T13:06:04.497Z,37.79
2023-03-15T13:11:11.846Z,39.37
2023-03-15T13:16:38.147Z,38.33
2023-03-15T13:21:52.525Z,37.36
2023-03-15T13:27:05.023Z,29.63
2023-03-15T13:32:18.965Z,21.64
2023-03-15T13:37:31.783Z,22.07
2023-03-15T13:42:33.419Z,20.91
2023-03-15T13:47:35.426Z,18.98
2023-03-15T13:52:37.286Z,16.59
2023-03-15T13:57:38.871Z,17.17
2023-03-15T14:02:44.465Z,20.28
2023-03-15T14:07:49.765Z,20.28
2023-03-15T14:12:53.136Z,23.53
2023-03-15T14:18:11.834Z,23.07
2023-03-15T14:23:16.972Z,26.54
2023-03-15T14:28:18.600Z,26.54
2023-03-15T14:33:31.709Z,27.86
2023-03-15T14:38:36.482Z,28.64
2023-03-15T14:43:37.934Z,29.88
2023-03-15T14:48:39.917Z,29.29
2023-03-15T14:53:41.731Z,29.11
2023-03-15T14:58:43.374Z,29.35
2023-03-15T15:04:01.594Z,30.43
2023-03-15T15:09:05.734Z,29.81
2023-03-15T15:14:12.567Z,30.57
2023-03-15T15:19:15.004Z,31.10
2023-03-15T15:24:19.708Z,31.87
2023-03-15T15:29:21.378Z,31.89
2023-03-15T15:34:22.725Z,32.56
2023-03-15T15:39:27.449Z,32.42
2023-03-15T15:44:28.854Z,33.84
2023-03-15T15:49:30.235Z,35.69
2023-03-15T15:54:34.928Z,35.96
2023-03-15T15:59:36.738Z,35.89
2023-03-15T16:04:38.096Z,33.61
2023-03-15T16:09:40.361Z,35.11
2023-03-15T16:14:42.485Z,36.24
2023-03-15T16:19:43.969Z,36.80
2023-03-15T16:24:48.288Z,36.75
2023-03-15T16:29:52.896Z,37.35
2023-03-15T16:34:54.301Z,37.35
2023-03-15T16:39:56.048Z,38.88
2023-03-15T16:44:57.460Z,37.65
2023-03-15T16:49:58.803Z,38.80
2023-03-15T16:55:01.348Z,40.01
2023-03-15T17:00:05.157Z,40.43
2023-03-15T17:05:06.898Z,40.47
2023-03-15T17:10:11.516Z,40.37
2023-03-15T17:15:13.150Z,40.82
2023-03-15T17:20:21.459Z,40.93
2023-03-15T17:25:23.124Z,40.87
2023-03-15T17:30:25.790Z,42.44
2023-03-15T17:35:31.302Z,42.10
2023-03-15T17:40:35.672Z,41.72
2023-03-15T17:45:37.368Z,41.74
2023-03-15T17:50:41.810Z,42.51
2023-03-15T17:55:44.056Z,42.83
2023-03-15T18:00:47.814Z,44.32
2023-03-15T18:05:49.285Z,43.29
2023-03-15T18:10:52.090Z,43.50
2023-03-15T18:15:53.492Z,43.91
2023-03-15T18:20:55.124Z,44.60
2023-03-15T18:25:56.590Z,48.02
2023-03-15T18:30:57.910Z,45.52
2023-03-15T18:35:59.282Z,45.86
2023-03-15T18:41:00.641Z,45.13
2023-03-15T18:46:02.374Z,46.14
2023-03-15T18:51:03.840Z,46.93
2023-03-15T18:56:05.578Z,45.51
2023-03-15T19:01:07.072Z,46.30
2023-03-15T19:06:11.617Z,46.57
2023-03-15T19:11:13.015Z,46.44
2023-03-15T19:16:14.358Z,46.63
2023-03-15T19:21:16.327Z,46.32
2023-03-15T19:26:17.713Z,47.46
2023-03-15T19:31:19.712Z,48.08
2023-03-15T19:36:22.169Z,48.29
2023-03-15T19:41:23.886Z,47.82
2023-03-15T19:46:25.335Z,48.39
2023-03-15T19:51:27.739Z,49.26
2023-03-15T19:56:29.372Z,49.32
2023-03-15T20:01:32.281Z,49.24
2023-03-15T20:06:33.727Z,49.60
2023-03-15T20:11:35.138Z,50.05
2023-03-15T20:16:36.487Z,50.17
2023-03-15T20:21:37.966Z,49.86
2023-03-15T20:26:39.369Z,49.60
2023-03-15T20:31:40.796Z,50.26
2023-03-15T20:36:42.528Z,50.68
2023-03-15T20:41:44.340Z,50.76
2023-03-15T20:46:45.791Z,50.40
2023-03-15T20:51:47.156Z,50.39
2023-03-15T20:56:48.501Z,51.06
2023-03-15T21:01:51.327Z,51.67
2023-03-15T21:06:52.775Z,52.07
2023-03-15T21:11:54.100Z,52.10
2023-03-15T21:16:55.653Z,53.10
2023-03-15T21:21:58.887Z,53.22
2023-03-15T21:27:06.153Z,53.06
2023-03-15T21:32:08.016Z,53.36
2023-03-15T21:37:09.591Z,53.26
2023-03-15T21:42:10.957Z,52.78
2023-03-15T21:47:13.966Z,53.60
2023-03-15T21:52:16.114Z,54.78
2023-03-15T21:57:17.498Z,54.55
2023-03-15T22:02:19.010Z,55.32
2023-03-15T22:07:20.372Z,56.20
2023-03-15T22:12:21.735Z,56.70
2023-03-15T22:17:23.118Z,56.70
2023-03-15T22:22:25.098Z,56.94
2023-03-15T22:27:26.804Z,57.57
2023-03-15T22:32:28.204Z,58.38
2023-03-15T22:37:29.699Z,58.34
2023-03-15T22:42:31.188Z,58.32
2023-03-15T22:47:32.649Z,58.65
2023-03-15T22:52:34.034Z,59.24
2023-03-15T22:57:35.492Z,59.26
2023-03-15T23:02:36.990Z,59.46
2023-03-15T23:07:39.097Z,59.76
2023-03-15T23:12:41.149Z,60.48
2023-03-15T23:17:45.836Z,60.64
2023-03-15T23:22:48.262Z,61.40
2023-03-15T23:27:50.632Z,61.87
2023-03-15T23:32:57.422Z,61.88
2023-03-15T23:37:58.997Z,62.04
2023-03-15T23:43:00.450Z,62.33
2023-03-15T23:48:05.777Z,62.69
2023-03-15T23:53:07.127Z,62.80
2023-03-15T23:58:08.555Z,62.67
